createdAt,value
2023-04-26T00:03:04.753Z,63.04
2023-04-26T00:08:07.850Z,54.46
2023-04-26T00:13:11.042Z,58.79
2023-04-26T00:18:13.648Z,65.86
2023-04-26T00:23:17.390Z,63.61
2023-04-26T00:28:20.259Z,53.99
2023-04-26T00:33:23.071Z,57.01
2023-04-26T00:38:25.716Z,59.41
2023-04-26T00:43:28.382Z,68.99
2023-04-26T00:48:31.062Z,58.90
2023-04-26T00:53:36.776Z,54.27
2023-04-26T00:58:39.482Z,57.29
2023-04-26T01:03:44.557Z,68.15
2023-04-26T01:08:47.328Z,58.31
2023-04-26T01:13:51.549Z,54.57
2023-04-26T01:18:54.732Z,59.38
2023-04-26T01:23:57.445Z,65.41
2023-04-26T01:28:59.976Z,68.43
2023-04-26T01:34:02.540Z,55.85
2023-04-26T01:39:05.778Z,56.00
2023-04-26T01:44:08.420Z,59.96
2023-04-26T01:49:11.141Z,60.78
2023-04-26T01:54:13.733Z,70.07
2023-04-26T01:59:16.358Z,62.52
2023-04-26T02:04:18.965Z,53.40
2023-04-26T02:09:21.570Z,57.20
2023-04-26T02:14:24.165Z,60.20
2023-04-26T02:19:26.965Z,67.69
2023-04-26T02:24:30.585Z,54.88
2023-04-26T02:29:43.974Z,54.75
2023-04-26T02:34:47.826Z,59.27
2023-04-26T02:39:51.831Z,68.71
2023-04-26T02:44:54.553Z,56.12
2023-04-26T02:49:57.248Z,54.87
2023-04-26T02:55:01.124Z,58.52
2023-04-26T03:00:05.671Z,63.14
2023-04-26T03:05:09.552Z,68.12
2023-04-26T03:10:13.028Z,54.54
2023-04-26T03:15:15.858Z,55.88
2023-04-26T03:20:19.494Z,65.19
2023-04-26T03:25:22.163Z,60.31
2023-04-26T03:30:24.836Z,54.94
2023-04-26T03:35:27.477Z,60.18
2023-04-26T03:40:30.124Z,66.83
2023-04-26T03:45:32.757Z,56.82
2023-04-26T03:50:35.368Z,55.32
2023-04-26T03:55:37.970Z,60.11
2023-04-26T04:00:43.806Z,66.30
2023-04-26T04:05:46.496Z,52.12
2023-04-26T04:10:49.377Z,53.44
2023-04-26T04:15:52.325Z,54.13
2023-04-26T04:20:55.109Z,53.51
2023-04-26T04:25:57.847Z,52.64
2023-04-26T04:31:01.879Z,52.57
2023-04-26T04:36:05.232Z,54.80
2023-04-26T04:41:08.985Z,52.17
2023-04-26T04:46:12.667Z,50.11
2023-04-26T04:51:15.646Z,48.31
2023-04-26T04:56:19.480Z,47.33
2023-04-26T05:01:22.459Z,44.80
2023-04-26T05:06:25.463Z,45.02
2023-04-26T05:11:28.230Z,42.11
2023-04-26T05:16:30.837Z,39.25
2023-04-26T05:21:33.714Z,38.60
2023-04-26T05:26:36.698Z,37.76
2023-04-26T05:31:39.323Z,37.19
2023-04-26T05:36:41.912Z,36.20
2023-04-26T05:41:44.690Z,37.05
2023-04-26T05:46:47.522Z,36.75
2023-04-26T05:51:50.324Z,38.17
2023-04-26T05:56:52.945Z,40.00
2023-04-26T06:01:55.660Z,39.82
2023-04-26T06:06:58.606Z,38.53
2023-04-26T06:12:02.355Z,38.03
2023-04-26T06:17:05.121Z,35.90
2023-04-26T06:22:07.782Z,32.85
2023-04-26T06:27:10.381Z,32.63
2023-04-26T06:32:13.071Z,31.28
2023-04-26T06:37:16.243Z,30.00
2023-04-26T06:42:18.838Z,31.58
2023-04-26T06:47:21.658Z,33.57
2023-04-26T06:52:24.384Z,34.88
2023-04-26T06:57:27.006Z,35.33
2023-04-26T07:02:29.981Z,36.10
2023-04-26T07:07:33.254Z,35.80
2023-04-26T07:12:36.041Z,35.92
2023-04-26T07:17:38.753Z,36.69
2023-04-26T07:22:41.374Z,37.33
2023-04-26T07:27:47.503Z,36.24
2023-04-26T07:32:50.426Z,36.34
2023-04-26T07:37:53.164Z,36.39
2023-04-26T07:42:55.796Z,35.39
2023-04-26T07:47:58.523Z,37.08
2023-04-26T07:53:01.122Z,38.75
2023-04-26T07:58:04.433Z,39.44
2023-04-26T08:03:08.364Z,39.67
2023-04-26T08:08:11.101Z,39.60
2023-04-26T08:13:14.205Z,40.64
2023-04-26T08:18:16.956Z,41.30
2023-04-26T08:23:19.713Z,41.00
2023-04-26T08:28:22.266Z,40.39
2023-04-26T08:33:25.729Z,40.41
2023-04-26T08:38:29.703Z,41.07
2023-04-26T08:43:35.495Z,41.95
2023-04-26T08:48:38.143Z,42.45
2023-04-26T08:53:41.883Z,43.50
2023-04-26T08:58:45.047Z,43.89
2023-04-26T09:03:48.356Z,43.45
2023-04-26T09:08:55.036Z,43.26
2023-04-26T09:13:57.767Z,43.47
2023-04-26T09:19:00.852Z,40.81
2023-04-26T09:24:04.724Z,40.04
2023-04-26T09:29:20.528Z,39.20
2023-04-26T09:34:23.267Z,39.67
2023-04-26T09:39:38.160Z,38.57
2023-04-26T09:44:40.811Z,38.40
2023-04-26T09:49:51.815Z,38.69
2023-04-26T09:54:56.910Z,39.23
2023-04-26T10:00:00.901Z,39.93
2023-04-26T10:05:06.205Z,40.88
2023-04-26T10:10:11.750Z,41.76
2023-04-26T10:15:15.515Z,41.85
2023-04-26T10:20:21.318Z,41.28
2023-04-26T10:25:39.106Z,41.40
2023-04-26T10:30:59.713Z,41.32
2023-04-26T10:36:13.770Z,42.24
2023-04-26T10:41:31.083Z,42.95
2023-04-26T10:46:40.268Z,42.91
2023-04-26T10:52:35.593Z,42.92
2023-04-26T10:57:54.352Z,43.38
2023-04-26T11:03:07.098Z,43.40
2023-04-26T11:08:25.016Z,42.83
2023-04-26T11:13:31.736Z,43.28
2023-04-26T11:18:38.765Z,43.92
2023-04-26T11:23:41.640Z,44.22
2023-04-26T11:28:45.723Z,43.92
2023-04-26T11:33:50.624Z,43.95
2023-04-26T11:38:54.276Z,44.49
2023-04-26T11:43:59.695Z,44.77
2023-04-26T11:49:02.483Z,44.99
2023-04-26T11:54:05.169Z,45.76
2023-04-26T11:59:07.992Z,46.43
2023-04-26T12:04:10.937Z,46.52
2023-04-26T12:09:13.990Z,45.76
2023-04-26T12:14:16.640Z,45.45
2023-04-26T12:19:24.146Z,45.69
2023-04-26T12:24:36.997Z,45.95
2023-04-26T12:29:39.740Z,46.60
2023-04-26T12:34:42.342Z,47.84
2023-04-26T12:39:47.062Z,49.26
2023-04-26T12:44:49.648Z,49.41
2023-04-26T12:49:52.436Z,49.74
2023-04-26T12:54:59.547Z,50.33
2023-04-26T13:00:14.787Z,50.50
2023-04-26T13:05:17.476Z,50.04
2023-04-26T13:10:20.204Z,49.86
2023-04-26T13:15:24.836Z,49.36
2023-04-26T13:20:29.594Z,48.80
2023-04-26T13:25:33.541Z,47.63
2023-04-26T13:30:36.720Z,46.66
2023-04-26T13:35:39.297Z,46.63
2023-04-26T13:40:41.890Z,46.43
2023-04-26T13:45:44.496Z,46.41
2023-04-26T13:50:47.081Z,46.76
2023-04-26T13:55:49.756Z,47.05
2023-04-26T14:00:52.613Z,47.20
2023-04-26T14:05:56.655Z,47.22
2023-04-26T14:10:59.628Z,47.09
2023-04-26T14:16:02.248Z,47.77
2023-04-26T14:21:05.329Z,48.99
2023-04-26T14:26:08.490Z,49.24
2023-04-26T14:31:11.302Z,49.63
2023-04-26T14:36:13.936Z,49.91
2023-04-26T14:41:18.346Z,49.83
2023-04-26T14:46:21.068Z,49.83
2023-04-26T14:51:24.058Z,49.32
2023-04-26T14:56:26.982Z,48.78
2023-04-26T15:01:31.263Z,48.75
2023-04-26T15:06:34.322Z,48.47
2023-04-26T15:11:36.929Z,48.47
2023-04-26T15:16:39.746Z,48.17
2023-04-26T15:21:42.511Z,48.33
2023-04-26T15:26:45.052Z,48.40
2023-04-26T15:31:47.690Z,48.37
2023-04-26T15:36:50.694Z,48.26
2023-04-26T15:41:53.331Z,47.23
2023-04-26T15:46:55.884Z,44.87
2023-04-26T15:51:58.764Z,43.52
2023-04-26T15:57:02.827Z,41.88
2023-04-26T16:02:06.150Z,40.83
2023-04-26T16:07:08.866Z,41.31
2023-04-26T16:12:11.977Z,41.80
2023-04-26T16:17:14.580Z,41.71
2023-04-26T16:22:17.761Z,41.63
2023-04-26T16:27:23.478Z,41.34
2023-04-26T16:32:26.566Z,40.69
2023-04-26T16:37:30.457Z,39.56
2023-04-26T16:42:33.293Z,40.03
2023-04-26T16:47:36.380Z,40.54
2023-04-26T16:52:39.118Z,40.77
2023-04-26T16:57:42.252Z,40.40
2023-04-26T17:02:45.034Z,40.61
2023-04-26T17:07:47.705Z,40.95
2023-04-26T17:12:50.680Z,40.77
2023-04-26T17:17:53.455Z,41.32
2023-04-26T17:22:56.818Z,41.94
2023-04-26T17:27:59.642Z,42.37
2023-04-26T17:33:02.898Z,42.88
2023-04-26T17:38:05.862Z,42.82
2023-04-26T17:43:09.011Z,42.85
2023-04-26T17:48:13.448Z,42.85
2023-04-26T17:53:16.380Z,43.09
2023-04-26T17:58:19.213Z,43.74
2023-04-26T18:03:22.087Z,43.98
2023-04-26T18:08:24.909Z,44.42
2023-04-26T18:13:28.341Z,44.70
2023-04-26T18:18:30.905Z,45.11
2023-04-26T18:23:33.533Z,45.34
2023-04-26T18:28:36.158Z,45.81
2023-04-26T18:33:38.770Z,46.36
2023-04-26T18:38:41.373Z,46.42
2023-04-26T18:43:43.952Z,46.53
2023-04-26T18:48:47.366Z,46.53
2023-04-26T18:53:50.105Z,46.58
2023-04-26T18:58:52.777Z,46.68
2023-04-26T19:03:55.729Z,46.71
2023-04-26T19:08:59.502Z,46.80
2023-04-26T19:14:02.088Z,47.03
2023-04-26T19:19:05.615Z,47.11
2023-04-26T19:24:09.135Z,47.57
2023-04-26T19:29:11.793Z,47.66
2023-04-26T19:34:14.401Z,47.97
2023-04-26T19:39:17.245Z,48.39
2023-04-26T19:44:22.524Z,48.37
2023-04-26T19:49:27.210Z,48.89
2023-04-26T19:54:32.283Z,48.99
2023-04-26T19:59:34.900Z,49.54
2023-04-26T20:04:37.559Z,49.19
2023-04-26T20:09:40.247Z,49.49
2023-04-26T20:14:42.822Z,49.58
2023-04-26T20:19:45.404Z,49.84
2023-04-26T20:24:47.961Z,50.09
2023-04-26T20:29:50.590Z,50.59
2023-04-26T20:34:53.631Z,51.03
2023-04-26T20:39:57.472Z,50.73
2023-04-26T20:45:02.224Z,51.04
2023-04-26T20:50:06.507Z,51.60
2023-04-26T20:55:09.411Z,51.40
2023-04-26T21:00:13.158Z,51.59
2023-04-26T21:05:15.818Z,51.58
2023-04-26T21:10:18.823Z,51.79
2023-04-26T21:15:21.722Z,52.21
2023-04-26T21:20:24.693Z,52.22
2023-04-26T21:25:28.000Z,52.79
2023-04-26T21:30:31.273Z,52.71
2023-04-26T21:35:34.231Z,52.72
2023-04-26T21:40:37.027Z,53.22
2023-04-26T21:45:39.963Z,53.18
2023-04-26T21:50:43.064Z,53.29
2023-04-26T21:55:53.032Z,53.53
2023-04-26T22:00:56.465Z,53.65
2023-04-26T22:05:59.338Z,53.78
2023-04-26T22:11:02.945Z,54.12
2023-04-26T22:16:06.797Z,54.25
2023-04-26T22:21:09.666Z,55.65
2023-04-26T22:26:12.533Z,54.70
2023-04-26T22:31:15.486Z,54.66
2023-04-26T22:36:18.491Z,54.89
2023-04-26T22:41:21.794Z,55.02
2023-04-26T22:46:24.677Z,55.44
2023-04-26T22:51:27.801Z,55.34
2023-04-26T22:56:30.909Z,55.52
2023-04-26T23:01:33.949Z,56.03
2023-04-26T23:06:37.120Z,55.91
2023-04-26T23:11:40.016Z,56.21
2023-04-26T23:16:42.920Z,56.49
2023-04-26T23:21:46.042Z,56.98
2023-04-26T23:26:49.046Z,56.89
2023-04-26T23:31:51.993Z,57.17
2023-04-26T23:36:54.952Z,57.30
2023-04-26T23:41:57.834Z,57.53
2023-04-26T23:47:01.121Z,57.80
2023-04-26T23:52:04.317Z,58.46
2023-04-26T23:57:07.258Z,58.73
